Time;durP1;ratioP1;P1;durP2;ratioP2;P2;SDS_P1;SDS_P2;PMS_P1;PMS_P2;Temp;Humidity;BMP_temperature;BMP_pressure;BME280_temperature;BME280_humidity;BME280_pressure;Samples;Min_cycle;Max_cycle;Signal;HPM_P1;HPM_P2
2023/10/26 00:01:24;;;;;;;1.88;0.60;;;11.70;69.30;;;;;;5076404;28;20029;-76
2023/10/26 00:03:50;;;;;;;1.15;0.40;;;11.70;69.20;;;;;;5076175;28;20021;-75
2023/10/26 00:06:15;;;;;;;2.08;0.50;;;11.80;68.60;;;;;;5076891;28;20038;-82
2023/10/26 00:08:41;;;;;;;2.83;0.45;;;11.70;68.40;;;;;;5077961;28;20021;-78
2023/10/26 00:11:06;;;;;;;3.55;0.40;;;11.80;68.20;;;;;;5075782;28;20072;-71
2023/10/26 00:13:32;;;;;;;1.20;0.40;;;11.80;68.40;;;;;;5074194;28;20051;-71
2023/10/26 00:15:57;;;;;;;1.17;0.40;;;11.80;68.50;;;;;;5075164;28;20655;-70
2023/10/26 00:18:23;;;;;;;3.72;0.57;;;11.70;68.60;;;;;;5075238;28;20028;-70
2023/10/26 00:20:54;;;;;;;1.50;0.75;;;11.60;68.90;;;;;;5075436;28;20501;-71
2023/10/26 00:23:20;;;;;;;1.55;0.50;;;11.70;69.00;;;;;;5074802;28;20365;-72
2023/10/26 00:25:45;;;;;;;0.98;0.50;;;11.60;69.20;;;;;;5075394;28;20048;-75
2023/10/26 00:28:11;;;;;;;2.65;0.68;;;11.60;69.30;;;;;;5075404;28;20020;-70
2023/10/26 00:30:37;;;;;;;1.10;0.40;;;11.70;69.30;;;;;;5075004;28;20115;-71
2023/10/26 00:33:02;;;;;;;2.67;0.60;;;11.60;69.50;;;;;;5075146;28;20032;-72
2023/10/26 00:35:28;;;;;;;2.42;0.93;;;11.60;69.60;;;;;;5073097;28;20021;-71
2023/10/26 00:37:53;;;;;;;4.05;0.55;;;11.60;70.00;;;;;;5074853;28;20544;-71
2023/10/26 00:40:20;;;;;;;1.60;0.50;;;11.60;69.80;;;;;;5074924;28;20028;-71
2023/10/26 00:42:45;;;;;;;3.40;0.55;;;11.60;70.30;;;;;;5073584;28;20114;-72
2023/10/26 00:45:10;;;;;;;0.82;0.30;;;11.60;70.50;;;;;;5074798;28;20028;-74
2023/10/26 00:47:36;;;;;;;2.83;0.68;;;11.50;70.90;;;;;;5073644;28;20044;-72
2023/10/26 00:50:03;;;;;;;4.45;0.80;;;11.50;71.20;;;;;;5075045;28;20035;-71
2023/10/26 00:52:29;;;;;;;2.85;0.70;;;11.50;71.60;;;;;;5075007;28;20426;-72
2023/10/26 00:54:55;;;;;;;3.22;0.68;;;11.50;71.70;;;;;;5081707;28;20127;-73
2023/10/26 00:57:23;;;;;;;2.63;0.60;;;11.50;72.10;;;;;;5074812;28;20476;-72
2023/10/26 00:59:50;;;;;;;2.33;0.70;;;11.50;72.20;;;;;;5073251;28;20460;-73
2023/10/26 01:02:17;;;;;;;2.35;0.60;;;11.40;72.30;;;;;;5074647;28;20052;-71
2023/10/26 01:04:43;;;;;;;1.52;0.50;;;11.40;72.30;;;;;;5074381;28;20075;-72
2023/10/26 01:07:09;;;;;;;1.45;0.45;;;11.40;72.50;;;;;;5073135;28;20497;-72
2023/10/26 01:09:34;;;;;;;1.92;0.63;;;11.40;72.80;;;;;;5074191;28;20021;-72
2023/10/26 01:12:01;;;;;;;1.98;0.45;;;11.40;72.90;;;;;;5074115;28;20045;-73
2023/10/26 01:14:27;;;;;;;3.05;0.50;;;11.40;73.20;;;;;;5074243;28;20042;-71
2023/10/26 01:16:54;;;;;;;1.88;0.50;;;11.30;73.30;;;;;;5074225;28;20031;-70
2023/10/26 01:19:19;;;;;;;1.45;0.60;;;11.30;73.20;;;;;;5074072;28;20073;-71
2023/10/26 01:21:52;;;;;;;2.63;0.80;;;11.30;73.10;;;;;;5072904;28;20028;-73
2023/10/26 01:24:19;;;;;;;1.75;0.60;;;11.30;73.30;;;;;;5073068;28;20408;-71
2023/10/26 01:26:44;;;;;;;3.83;0.57;;;11.30;73.50;;;;;;5074041;28;20105;-72
2023/10/26 01:29:10;;;;;;;2.85;0.68;;;11.30;73.40;;;;;;5073733;28;20465;-72
2023/10/26 01:31:36;;;;;;;2.33;0.73;;;11.30;73.50;;;;;;5073996;28;20028;-73
2023/10/26 01:34:02;;;;;;;2.88;0.60;;;11.40;73.40;;;;;;5073856;28;20424;-73
2023/10/26 01:36:27;;;;;;;2.72;0.63;;;11.30;73.60;;;;;;5073864;28;20032;-72
2023/10/26 01:38:55;;;;;;;4.10;0.70;;;11.40;73.80;;;;;;5073718;28;20469;-71
2023/10/26 01:41:20;;;;;;;2.90;0.93;;;11.40;73.80;;;;;;5073724;28;20162;-72
2023/10/26 01:43:46;;;;;;;1.95;0.65;;;11.30;73.80;;;;;;5073686;28;20052;-73
2023/10/26 01:46:12;;;;;;;2.75;0.77;;;11.30;74.10;;;;;;5073528;28;20041;-72
2023/10/26 01:48:38;;;;;;;2.88;0.63;;;11.30;74.20;;;;;;5073331;28;20021;-72
2023/10/26 01:51:04;;;;;;;2.65;0.50;;;11.40;74.20;;;;;;5073541;28;20103;-74
2023/10/26 01:53:30;;;;;;;2.88;0.50;;;11.30;74.10;;;;;;5073552;28;20108;-71
2023/10/26 01:55:55;;;;;;;4.70;0.70;;;11.30;74.30;;;;;;5071861;28;20024;-71
2023/10/26 01:58:21;;;;;;;1.50;0.50;;;11.30;74.30;;;;;;5072116;28;20127;-72
2023/10/26 02:00:46;;;;;;;1.58;0.60;;;11.30;74.20;;;;;;5073329;28;20025;-72
2023/10/26 02:03:12;;;;;;;1.08;0.35;;;11.30;74.60;;;;;;5073414;28;20397;-72
2023/10/26 02:05:37;;;;;;;1.35;0.45;;;11.30;74.60;;;;;;5072922;28;20365;-72
2023/10/26 02:08:03;;;;;;;1.77;0.52;;;11.30;74.70;;;;;;5073293;28;20063;-71
2023/10/26 02:10:31;;;;;;;2.70;0.50;;;11.30;74.50;;;;;;5072991;28;20179;-71
2023/10/26 02:12:57;;;;;;;2.20;0.60;;;11.30;74.70;;;;;;5073026;28;20035;-76
2023/10/26 02:15:22;;;;;;;0.70;0.47;;;11.30;74.60;;;;;;5073334;28;20025;-71
2023/10/26 02:17:48;;;;;;;3.47;0.60;;;11.30;74.80;;;;;;5071822;28;20021;-72
2023/10/26 02:20:14;;;;;;;2.72;0.50;;;11.30;74.70;;;;;;5073014;28;20083;-75
2023/10/26 02:22:39;;;;;;;2.55;0.75;;;11.30;74.60;;;;;;5072857;28;20595;-72
2023/10/26 02:25:05;;;;;;;2.17;0.73;;;11.40;74.60;;;;;;5073075;28;20070;-72
2023/10/26 02:27:32;;;;;;;1.42;0.50;;;11.40;74.60;;;;;;5072018;28;20059;-74
2023/10/26 02:29:57;;;;;;;1.52;0.68;;;11.40;74.40;;;;;;5073111;28;20415;-75
2023/10/26 02:32:23;;;;;;;2.17;0.63;;;11.40;74.80;;;;;;5072866;28;20029;-73
2023/10/26 02:34:49;;;;;;;2.20;0.60;;;11.40;74.70;;;;;;5072982;28;20032;-72
2023/10/26 02:37:15;;;;;;;1.10;0.63;;;11.40;74.90;;;;;;5073148;28;20063;-71
2023/10/26 02:39:40;;;;;;;1.20;0.75;;;11.30;74.90;;;;;;5068040;28;20020;-73
2023/10/26 02:42:06;;;;;;;2.05;0.50;;;11.30;75.00;;;;;;5032828;28;20529;-75
2023/10/26 02:44:32;;;;;;;1.50;0.57;;;11.30;74.60;;;;;;5032273;28;20022;-70
2023/10/26 02:46:57;;;;;;;1.40;0.70;;;11.30;75.10;;;;;;5032659;28;20041;-73
2023/10/26 02:49:23;;;;;;;0.82;0.50;;;11.30;75.00;;;;;;5032821;28;20104;-71
2023/10/26 02:51:48;;;;;;;2.78;0.60;;;11.30;75.10;;;;;;5032769;28;20026;-73
2023/10/26 02:54:14;;;;;;;1.33;0.63;;;11.30;75.60;;;;;;5032972;28;20072;-80
2023/10/26 02:56:40;;;;;;;3.33;1.00;;;11.20;76.10;;;;;;5032959;28;20021;-75
2023/10/26 02:59:05;;;;;;;2.03;0.52;;;11.10;76.90;;;;;;5032616;28;20386;-76
2023/10/26 03:01:33;;;;;;;1.27;0.47;;;11.10;77.50;;;;;;5031602;28;20463;-78
2023/10/26 03:04:00;;;;;;;2.30;0.82;;;11.00;77.90;;;;;;5032835;28;20036;-73
2023/10/26 03:06:25;;;;;;;3.28;1.35;;;10.90;78.20;;;;;;5032687;28;20045;-80
2023/10/26 03:08:51;;;;;;;4.40;1.85;;;10.90;78.20;;;;;;5032750;28;20052;-74
2023/10/26 03:11:16;;;;;;;2.90;1.88;;;10.90;78.60;;;;;;5031179;28;20065;-74
2023/10/26 03:13:42;;;;;;;2.17;1.48;;;10.80;78.80;;;;;;5032605;28;20043;-75
2023/10/26 03:16:07;;;;;;;2.03;1.30;;;10.80;79.10;;;;;;5032554;28;20029;-73
2023/10/26 03:18:33;;;;;;;4.82;1.48;;;10.70;79.50;;;;;;5032485;28;20227;-74
2023/10/26 03:20:58;;;;;;;2.42;1.50;;;10.70;79.70;;;;;;5032503;28;20055;-75
2023/10/26 03:23:24;;;;;;;2.05;1.25;;;10.70;80.00;;;;;;5032375;28;20045;-74
2023/10/26 03:25:49;;;;;;;2.28;1.20;;;10.70;80.20;;;;;;5032285;28;20108;-72
2023/10/26 03:28:15;;;;;;;2.72;1.27;;;10.70;80.40;;;;;;5031119;28;20443;-74
2023/10/26 03:30:40;;;;;;;2.45;1.02;;;10.70;80.50;;;;;;5030977;28;20498;-74
2023/10/26 03:33:06;;;;;;;7.70;1.23;;;10.60;80.70;;;;;;5030844;28;20022;-73
2023/10/26 03:35:37;;;;;;;4.03;0.88;;;10.60;80.90;;;;;;5032208;28;20029;-71
2023/10/26 03:38:03;;;;;;;2.47;0.75;;;10.60;81.00;;;;;;5032110;28;20040;-72
2023/10/26 03:40:29;;;;;;;2.97;0.80;;;10.60;81.00;;;;;;5032411;28;20037;-74
2023/10/26 03:42:54;;;;;;;3.70;0.60;;;10.60;81.10;;;;;;5031963;28;20108;-72
2023/10/26 03:45:20;;;;;;;1.90;0.88;;;10.60;81.20;;;;;;5032031;28;20478;-73
2023/10/26 03:47:45;;;;;;;2.40;0.95;;;10.50;81.40;;;;;;5032247;28;20363;-83
2023/10/26 03:50:11;;;;;;;2.35;1.23;;;10.60;81.50;;;;;;5032224;28;20033;-74
2023/10/26 03:52:36;;;;;;;2.20;1.45;;;10.60;81.60;;;;;;5032079;28;20074;-73
2023/10/26 03:55:04;;;;;;;2.08;1.13;;;10.60;81.60;;;;;;5032255;28;20036;-76
2023/10/26 03:57:32;;;;;;;2.67;1.00;;;10.60;81.70;;;;;;5034116;28;20033;-83
2023/10/26 03:59:57;;;;;;;5.32;1.20;;;10.60;81.70;;;;;;5036429;28;20072;-78
2023/10/26 04:02:23;;;;;;;2.35;1.10;;;10.60;81.70;;;;;;5035973;28;20049;-78
2023/10/26 04:04:50;;;;;;;2.28;1.20;;;10.60;81.60;;;;;;5036277;28;20018;-82
2023/10/26 04:07:16;;;;;;;1.65;0.90;;;10.70;81.50;;;;;;5036057;28;20616;-79
2023/10/26 04:09:41;;;;;;;2.17;1.15;;;10.70;81.50;;;;;;5035866;28;20470;-80
2023/10/26 04:12:07;;;;;;;2.40;0.98;;;10.70;81.60;;;;;;5035662;28;20053;-78
2023/10/26 04:14:33;;;;;;;1.30;0.93;;;10.60;81.60;;;;;;5034216;28;20029;-80
2023/10/26 04:16:59;;;;;;;3.90;1.50;;;10.70;81.90;;;;;;5035480;28;20433;-72
2023/10/26 04:19:24;;;;;;;5.30;2.88;;;10.70;82.40;;;;;;5035574;28;20462;-72
2023/10/26 04:21:50;;;;;;;6.50;4.00;;;10.60;82.20;;;;;;5035469;28;20156;-71
2023/10/26 04:24:15;;;;;;;5.28;3.90;;;10.60;82.70;;;;;;5035015;28;20037;-72
2023/10/26 04:26:42;;;;;;;4.05;2.28;;;10.60;82.80;;;;;;5035376;28;20091;-72
2023/10/26 04:29:07;;;;;;;3.20;1.10;;;10.60;83.00;;;;;;5035194;28;20521;-72
2023/10/26 04:31:33;;;;;;;3.03;1.20;;;10.60;83.00;;;;;;5059344;28;20028;-72
2023/10/26 04:33:59;;;;;;;4.30;1.35;;;10.50;83.40;;;;;;5075365;28;20038;-72
2023/10/26 04:36:26;;;;;;;1.40;0.82;;;10.50;83.70;;;;;;5074881;28;20025;-72
2023/10/26 04:38:51;;;;;;;2.42;1.10;;;10.50;84.10;;;;;;5075039;28;20024;-73
2023/10/26 04:41:17;;;;;;;5.28;0.98;;;10.50;84.30;;;;;;5075287;28;20488;-74
2023/10/26 04:43:43;;;;;;;2.35;1.05;;;10.50;84.40;;;;;;5073683;28;20441;-72
2023/10/26 04:46:08;;;;;;;2.83;1.00;;;10.60;84.40;;;;;;5074529;28;20047;-71
2023/10/26 04:48:34;;;;;;;2.13;1.00;;;10.60;84.50;;;;;;5074417;28;20530;-73
2023/10/26 04:51:00;;;;;;;2.83;1.20;;;10.60;84.50;;;;;;5074712;28;20449;-71
2023/10/26 04:53:25;;;;;;;1.80;1.00;;;10.70;84.70;;;;;;5074452;28;20029;-71
2023/10/26 04:55:51;;;;;;;2.47;1.02;;;10.60;84.60;;;;;;5074757;28;20016;-72
2023/10/26 04:58:18;;;;;;;1.95;1.00;;;10.70;84.90;;;;;;5074534;28;20029;-71
2023/10/26 05:00:43;;;;;;;1.15;0.82;;;10.70;84.90;;;;;;5074422;28;20028;-70
2023/10/26 05:03:09;;;;;;;1.63;0.90;;;10.70;85.00;;;;;;5074527;28;20027;-71
2023/10/26 05:05:35;;;;;;;1.00;0.80;;;10.70;84.90;;;;;;5075164;28;20028;-71
2023/10/26 05:08:01;;;;;;;1.55;0.63;;;10.80;84.70;;;;;;5074614;28;20389;-72
2023/10/26 05:10:27;;;;;;;2.15;0.80;;;10.80;84.50;;;;;;5078783;28;20037;-71
2023/10/26 05:12:53;;;;;;;1.20;0.40;;;10.80;84.50;;;;;;5074363;28;20133;-73
2023/10/26 05:15:19;;;;;;;1.75;0.77;;;10.90;84.70;;;;;;5073091;28;20427;-71
2023/10/26 05:17:45;;;;;;;1.58;0.80;;;10.90;84.70;;;;;;5074179;28;20142;-71
2023/10/26 05:20:11;;;;;;;2.20;0.55;;;10.90;84.70;;;;;;5074285;28;20016;-72
2023/10/26 05:22:36;;;;;;;0.73;0.47;;;10.90;84.60;;;;;;5074295;28;20024;-72
2023/10/26 05:25:04;;;;;;;0.50;0.40;;;11.00;84.40;;;;;;5074067;28;20024;-71
2023/10/26 05:27:33;;;;;;;1.20;0.63;;;11.00;84.30;;;;;;5074262;28;20024;-72
2023/10/26 05:29:59;;;;;;;2.63;0.70;;;11.00;84.40;;;;;;5073724;28;20078;-73
2023/10/26 05:32:25;;;;;;;1.92;0.80;;;11.00;84.50;;;;;;5073742;28;20025;-72
2023/10/26 05:34:51;;;;;;;2.67;0.90;;;11.00;84.50;;;;;;5073673;28;20035;-73
2023/10/26 05:37:16;;;;;;;1.25;0.47;;;11.00;84.60;;;;;;5073710;28;20024;-71
2023/10/26 05:39:42;;;;;;;1.30;0.60;;;11.10;84.60;;;;;;5073803;28;20020;-73
2023/10/26 05:42:07;;;;;;;2.05;0.60;;;11.10;84.70;;;;;;5073566;28;20503;-70
2023/10/26 05:44:33;;;;;;;3.00;1.88;;;11.10;85.50;;;;;;5073822;28;20369;-75
2023/10/26 05:47:01;;;;;;;1.48;0.50;;;11.10;84.50;;;;;;5073763;28;20033;-73
2023/10/26 05:49:27;;;;;;;4.68;2.53;;;11.10;84.30;;;;;;5073461;28;20473;-71
2023/10/26 05:51:53;;;;;;;0.50;0.40;;;11.10;84.20;;;;;;5073367;28;20093;-73
2023/10/26 05:54:19;;;;;;;1.08;0.47;;;11.20;84.00;;;;;;5072042;28;20021;-73
2023/10/26 05:56:45;;;;;;;0.77;0.60;;;11.20;84.10;;;;;;5073345;28;20109;-72
2023/10/26 05:59:10;;;;;;;1.00;0.47;;;11.20;84.20;;;;;;5073030;28;20024;-72
2023/10/26 06:01:36;;;;;;;0.30;0.30;;;11.20;84.00;;;;;;5073464;28;20017;-73
2023/10/26 06:04:02;;;;;;;0.82;0.50;;;11.20;83.80;;;;;;5073629;28;20035;-74
2023/10/26 06:06:27;;;;;;;2.42;0.70;;;11.20;84.00;;;;;;5073200;28;20033;-71
2023/10/26 06:08:53;;;;;;;4.55;0.90;;;11.20;84.40;;;;;;5073289;28;20381;-74
2023/10/26 06:11:18;;;;;;;2.13;1.00;;;11.20;86.40;;;;;;5072840;28;20052;-75
2023/10/26 06:13:44;;;;;;;2.45;0.90;;;11.30;86.90;;;;;;5073134;28;20036;-72
2023/10/26 06:16:13;;;;;;;1.25;0.63;;;11.40;85.90;;;;;;5071820;28;20021;-75
2023/10/26 06:18:39;;;;;;;1.98;0.73;;;11.60;85.30;;;;;;5072828;28;20090;-74
2023/10/26 06:21:05;;;;;;;3.50;0.95;;;11.70;85.20;;;;;;5070994;28;20024;-74
2023/10/26 06:23:30;;;;;;;0.93;0.60;;;11.90;85.30;;;;;;5071824;28;20447;-73
2023/10/26 06:25:58;;;;;;;1.33;0.60;;;12.20;84.10;;;;;;5071820;28;20036;-75
2023/10/26 06:28:27;;;;;;;0.80;0.47;;;12.50;83.30;;;;;;5071970;28;20037;-75
2023/10/26 06:30:53;;;;;;;0.68;0.47;;;12.70;81.80;;;;;;5071741;28;20503;-75
2023/10/26 06:33:19;;;;;;;0.60;0.40;;;12.80;80.90;;;;;;5071804;28;20128;-75
2023/10/26 06:35:45;;;;;;;1.80;0.60;;;12.90;80.60;;;;;;5071632;28;20191;-75
2023/10/26 06:38:10;;;;;;;1.88;0.60;;;13.00;80.00;;;;;;5071999;28;20025;-76
2023/10/26 06:40:36;;;;;;;1.88;0.80;;;13.00;79.60;;;;;;5054939;28;20056;-73
2023/10/26 06:43:01;;;;;;;0.68;0.40;;;13.00;79.30;;;;;;5072736;28;20082;-72
2023/10/26 06:45:27;;;;;;;1.15;0.22;;;12.80;79.20;;;;;;5072303;28;20040;-72
2023/10/26 06:47:52;;;;;;;0.75;0.45;;;12.40;80.50;;;;;;5072629;28;20075;-72
2023/10/26 06:50:18;;;;;;;1.27;0.60;;;12.10;82.10;;;;;;5073369;28;20098;-73
2023/10/26 06:52:44;;;;;;;0.82;0.60;;;11.90;82.70;;;;;;5072201;28;20020;-73
2023/10/26 06:55:15;;;;;;;1.83;0.57;;;11.70;84.00;;;;;;5073331;28;20027;-72
2023/10/26 06:57:41;;;;;;;0.52;0.30;;;11.60;84.60;;;;;;5072897;28;20021;-72
2023/10/26 07:00:07;;;;;;;0.35;0.35;;;11.50;85.50;;;;;;5071315;28;20362;-74
2023/10/26 07:02:33;;;;;;;1.02;0.45;;;11.30;86.00;;;;;;5072446;28;20025;-75
2023/10/26 07:04:59;;;;;;;0.85;0.55;;;11.30;86.50;;;;;;5072409;28;20032;-74
2023/10/26 07:07:25;;;;;;;0.52;0.52;;;11.30;86.60;;;;;;5072661;28;20021;-77
2023/10/26 07:09:52;;;;;;;0.90;0.70;;;11.20;87.30;;;;;;5071546;28;20086;-72
2023/10/26 07:12:17;;;;;;;1.02;0.70;;;11.10;87.50;;;;;;5072144;28;20048;-74
2023/10/26 07:14:43;;;;;;;0.70;0.70;;;11.10;88.10;;;;;;5071093;28;20024;-73
2023/10/26 07:17:08;;;;;;;0.70;0.60;;;11.10;88.10;;;;;;5072668;28;20105;-73
2023/10/26 07:19:34;;;;;;;1.13;0.80;;;11.10;88.70;;;;;;5072534;28;20032;-73
2023/10/26 07:21:59;;;;;;;0.82;0.60;;;11.10;88.60;;;;;;5072489;28;20021;-72
2023/10/26 07:24:25;;;;;;;1.55;0.60;;;11.10;88.80;;;;;;5072151;28;20108;-71
2023/10/26 07:26:51;;;;;;;2.25;1.10;;;11.20;88.80;;;;;;5072314;28;20043;-71
2023/10/26 07:29:17;;;;;;;2.38;1.20;;;11.20;88.10;;;;;;5072457;28;20461;-73
2023/10/26 07:31:44;;;;;;;3.10;0.93;;;11.10;87.90;;;;;;5074376;28;20058;-74
2023/10/26 07:34:09;;;;;;;1.02;0.50;;;11.20;87.80;;;;;;5076385;28;20031;-73
2023/10/26 07:36:35;;;;;;;0.68;0.47;;;11.20;87.50;;;;;;5076325;28;20033;-73
2023/10/26 07:39:01;;;;;;;0.47;0.40;;;11.20;87.20;;;;;;5076423;28;20089;-75
2023/10/26 07:41:27;;;;;;;0.80;0.50;;;11.30;87.10;;;;;;5076343;28;20103;-81
2023/10/26 07:43:52;;;;;;;0.52;0.50;;;11.40;86.80;;;;;;5076538;28;20063;-80
2023/10/26 07:46:19;;;;;;;2.05;0.70;;;11.40;86.70;;;;;;5076369;28;20039;-78
2023/10/26 07:48:45;;;;;;;1.15;0.50;;;11.50;86.70;;;;;;5076846;28;20032;-78
2023/10/26 07:51:11;;;;;;;1.95;0.75;;;11.50;86.80;;;;;;5076412;28;20025;-81
2023/10/26 07:53:36;;;;;;;1.92;1.10;;;11.50;87.00;;;;;;5077328;28;20421;-81
2023/10/26 07:56:02;;;;;;;2.10;1.02;;;11.50;87.00;;;;;;5076783;28;20033;-78
2023/10/26 07:58:30;;;;;;;1.45;0.90;;;11.50;87.00;;;;;;5075947;28;20020;-80
2023/10/26 08:00:56;;;;;;;1.38;0.70;;;11.50;87.20;;;;;;5075505;28;20492;-78
2023/10/26 08:03:27;;;;;;;0.60;0.50;;;11.50;87.10;;;;;;5075803;28;20020;-78
2023/10/26 08:05:57;;;;;;;0.93;0.68;;;11.60;87.10;;;;;;5075508;28;20432;-75
2023/10/26 08:08:23;;;;;;;0.80;0.57;;;11.60;87.10;;;;;;5074194;28;20031;-79
2023/10/26 08:10:48;;;;;;;1.10;0.68;;;11.70;87.20;;;;;;5075133;28;20048;-76
2023/10/26 08:13:14;;;;;;;0.77;0.63;;;11.70;86.90;;;;;;5060567;28;20021;-76
2023/10/26 08:15:42;;;;;;;0.90;0.50;;;11.80;86.80;;;;;;5044727;28;20021;-76
2023/10/26 08:18:08;;;;;;;0.65;0.40;;;11.90;86.70;;;;;;5043849;28;20423;-72
2023/10/26 08:20:33;;;;;;;0.88;0.52;;;12.00;86.50;;;;;;5045882;28;20017;-75
2023/10/26 08:23:01;;;;;;;1.45;0.52;;;12.10;86.30;;;;;;5044878;28;20025;-78
2023/10/26 08:25:26;;;;;;;0.30;0.30;;;12.10;86.10;;;;;;5043850;28;20013;-76
2023/10/26 08:27:52;;;;;;;0.68;0.25;;;12.10;86.20;;;;;;5046348;28;20554;-72
2023/10/26 08:30:17;;;;;;;0.30;0.20;;;12.10;86.40;;;;;;5044418;28;20017;-79
2023/10/26 08:32:43;;;;;;;0.75;0.30;;;12.10;86.30;;;;;;5044542;28;20035;-81
2023/10/26 08:35:09;;;;;;;0.22;0.22;;;12.10;86.20;;;;;;5036686;28;20071;-80
2023/10/26 08:37:34;;;;;;;1.38;0.20;;;12.10;86.40;;;;;;5038629;28;20037;-78
2023/10/26 08:40:00;;;;;;;0.15;0.15;;;12.20;86.50;;;;;;5045615;28;20029;-81
2023/10/26 08:42:25;;;;;;;0.60;0.30;;;12.20;86.60;;;;;;5043124;28;20093;-80
2023/10/26 08:44:54;;;;;;;0.30;0.22;;;12.20;86.40;;;;;;5043518;28;20488;-72
2023/10/26 08:47:21;;;;;;;0.85;0.45;;;12.20;86.50;;;;;;5045037;28;20031;-81
2023/10/26 08:49:49;;;;;;;0.47;0.38;;;12.30;86.60;;;;;;5044707;28;20025;-78
2023/10/26 08:52:15;;;;;;;0.55;0.32;;;12.30;86.60;;;;;;5043456;28;20093;-72
2023/10/26 08:54:40;;;;;;;1.25;0.52;;;12.40;86.30;;;;;;5044847;28;20024;-71
2023/10/26 08:57:09;;;;;;;0.50;0.50;;;12.40;86.10;;;;;;5046996;28;20029;-74
2023/10/26 08:59:36;;;;;;;0.60;0.50;;;12.40;86.10;;;;;;5045171;28;20029;-80
2023/10/26 09:02:02;;;;;;;0.43;0.13;;;12.40;85.90;;;;;;5044076;28;20097;-80
2023/10/26 09:04:27;;;;;;;2.05;0.10;;;12.50;86.30;;;;;;5046195;28;20478;-79
2023/10/26 09:06:53;;;;;;;0.15;0.10;;;12.50;86.10;;;;;;5041786;28;20045;-76
2023/10/26 09:09:19;;;;;;;1.38;0.20;;;12.70;85.40;;;;;;5044871;28;20023;-79
2023/10/26 09:11:48;;;;;;;0.40;0.20;;;12.90;84.60;;;;;;5044288;28;20049;-80
2023/10/26 09:14:21;;;;;;;0.32;0.20;;;13.10;84.50;;;;;;5043073;28;20021;-77
2023/10/26 09:16:48;;;;;;;2.38;0.30;;;13.20;83.80;;;;;;5042789;28;20474;-79
2023/10/26 09:19:15;;;;;;;0.30;0.20;;;13.30;83.80;;;;;;5042723;28;20035;-77
2023/10/26 09:22:12;;;;;;;0.35;0.30;;;13.30;82.40;;;;;;5052472;28;20021;-80
2023/10/26 09:24:37;;;;;;;2.95;0.57;;;13.40;80.90;;;;;;5050267;28;20036;-75
2023/10/26 09:27:03;;;;;;;2.10;0.50;;;13.60;80.40;;;;;;5057156;28;20033;-80
2023/10/26 09:29:36;;;;;;;2.53;0.52;;;13.70;79.60;;;;;;5049632;28;20025;-78
2023/10/26 09:32:02;;;;;;;1.98;0.50;;;13.90;77.70;;;;;;5050182;28;20051;-81
2023/10/26 09:34:28;;;;;;;2.42;0.60;;;14.00;77.10;;;;;;5054980;28;20021;-78
2023/10/26 09:37:04;;;;;;;1.77;0.60;;;14.10;76.40;;;;;;5047743;28;20488;-79
2023/10/26 09:39:33;;;;;;;3.28;0.93;;;14.20;76.10;;;;;;5043179;28;20021;-76
2023/10/26 09:42:00;;;;;;;2.00;0.93;;;14.20;75.90;;;;;;5042593;28;20466;-77
2023/10/26 09:44:26;;;;;;;3.00;0.95;;;14.30;75.20;;;;;;5043344;28;20470;-79
2023/10/26 09:46:52;;;;;;;3.70;1.08;;;14.30;75.80;;;;;;5043156;28;20033;-79
2023/10/26 09:49:18;;;;;;;4.60;1.20;;;14.30;75.00;;;;;;5042312;28;20017;-76
2023/10/26 09:51:44;;;;;;;3.90;0.85;;;14.30;74.50;;;;;;5042749;28;20492;-76
2023/10/26 09:54:10;;;;;;;4.82;1.33;;;14.30;75.10;;;;;;5041982;28;20386;-79
2023/10/26 09:56:38;;;;;;;5.32;1.20;;;14.30;75.10;;;;;;5042354;28;20021;-75
2023/10/26 09:59:05;;;;;;;5.97;1.58;;;14.30;75.30;;;;;;5043690;28;20025;-79
2023/10/26 10:01:38;;;;;;;4.80;1.38;;;14.40;73.30;;;;;;5041900;28;20024;-80
2023/10/26 10:04:08;;;;;;;6.00;1.92;;;14.40;72.10;;;;;;5041433;28;20397;-75
2023/10/26 10:06:58;;;;;;;4.80;1.52;;;14.50;72.50;;;;;;5042148;28;20032;-76
2023/10/26 10:09:27;;;;;;;6.15;1.75;;;14.50;72.40;;;;;;5043187;28;20043;-78
2023/10/26 10:12:05;;;;;;;5.32;1.58;;;14.70;71.00;;;;;;5041179;28;20401;-78
2023/10/26 10:14:54;;;;;;;6.50;1.85;;;14.80;70.40;;;;;;5040936;28;20020;-78
2023/10/26 10:17:46;;;;;;;7.00;2.30;;;15.00;69.90;;;;;;5043605;28;20087;-80
2023/10/26 10:20:14;;;;;;;7.20;2.03;;;15.10;69.10;;;;;;5041849;28;20048;-79
2023/10/26 10:22:40;;;;;;;6.22;2.00;;;15.20;69.20;;;;;;5043849;28;20041;-78
2023/10/26 10:25:10;;;;;;;8.70;2.70;;;15.20;68.40;;;;;;5049902;28;20099;-79
2023/10/26 10:27:39;;;;;;;7.22;2.25;;;15.20;68.80;;;;;;5053472;28;20060;-82
2023/10/26 10:30:08;;;;;;;9.52;2.63;;;15.20;69.20;;;;;;5053227;28;20462;-78
2023/10/26 10:32:46;;;;;;;8.60;2.88;;;15.30;68.80;;;;;;5053067;28;20044;-79
2023/10/26 10:35:31;;;;;;;7.55;2.78;;;15.50;68.40;;;;;;5051621;28;20055;-78
2023/10/26 10:38:18;;;;;;;10.20;2.60;;;15.70;68.00;;;;;;5055705;28;20428;-76
2023/10/26 10:40:58;;;;;;;8.35;2.33;;;16.00;66.20;;;;;;5052815;28;20017;-77
2023/10/26 10:43:44;;;;;;;8.05;2.13;;;16.10;64.80;;;;;;5052296;28;20082;-80
2023/10/26 10:46:13;;;;;;;;;;;16.00;65.60;;;;;;5051717;28;20375;-78
2023/10/26 10:49:07;;;;;;;9.43;3.08;;;16.00;64.90;;;;;;5051260;28;20349;-80
2023/10/26 10:51:38;;;;;;;11.70;2.60;;;15.90;66.00;;;;;;5052105;28;20512;-74
2023/10/26 10:54:12;;;;;;;9.00;3.10;;;15.90;65.00;;;;;;5051772;28;20401;-72
2023/10/26 10:56:43;;;;;;;12.43;3.08;;;15.90;64.70;;;;;;5052021;28;20375;-72
2023/10/26 10:59:22;;;;;;;9.85;2.75;;;15.80;64.50;;;;;;5051613;28;20021;-74
2023/10/26 11:01:50;;;;;;;12.23;3.50;;;15.90;64.70;;;;;;5051534;28;20033;-75
2023/10/26 11:04:16;;;;;;;10.63;3.10;;;15.90;63.50;;;;;;5051526;28;20416;-74
2023/10/26 11:06:46;;;;;;;11.05;3.00;;;15.90;64.20;;;;;;5053946;28;20132;-73
2023/10/26 11:09:31;;;;;;;9.77;3.33;;;16.00;64.30;;;;;;5056324;28;20075;-73
2023/10/26 11:12:08;;;;;;;10.87;3.13;;;16.20;62.80;;;;;;5056399;28;20041;-78
2023/10/26 11:14:33;;;;;;;8.73;2.17;;;16.40;61.50;;;;;;5056699;28;20032;-79
2023/10/26 11:17:00;;;;;;;9.98;2.92;;;16.50;62.00;;;;;;5055000;28;20032;-77
2023/10/26 11:19:25;;;;;;;9.15;2.90;;;16.60;62.50;;;;;;5056201;28;20112;-76
2023/10/26 11:21:58;;;;;;;13.75;3.03;;;16.40;62.20;;;;;;5056327;28;20114;-78
2023/10/26 11:24:32;;;;;;;14.82;3.42;;;16.50;63.10;;;;;;5055804;28;20028;-71
2023/10/26 11:27:12;;;;;;;11.83;2.70;;;16.60;61.40;;;;;;5055528;28;20462;-73
2023/10/26 11:29:40;;;;;;;13.75;3.35;;;17.10;60.60;;;;;;5055624;28;20021;-73
2023/10/26 11:32:18;;;;;;;17.33;4.18;;;17.30;59.80;;;;;;5055724;28;20052;-74
2023/10/26 11:35:10;;;;;;;14.07;4.00;;;17.50;58.70;;;;;;5055655;28;20021;-73
2023/10/26 11:37:43;;;;;;;8.80;2.83;;;17.60;58.00;;;;;;5055544;28;20032;-72
2023/10/26 11:40:11;;;;;;;11.18;3.05;;;18.00;57.50;;;;;;5055648;28;20028;-76
2023/10/26 11:42:44;;;;;;;10.38;2.80;;;18.30;56.70;;;;;;5055646;28;20032;-73
2023/10/26 11:45:11;;;;;;;12.98;3.10;;;18.60;54.60;;;;;;5050304;28;20029;-74
2023/10/26 11:48:03;;;;;;;12.07;3.72;;;18.30;54.20;;;;;;5044706;28;20034;-75
2023/10/26 11:50:36;;;;;;;11.18;3.25;;;18.20;52.90;;;;;;5042343;28;20037;-73
2023/10/26 11:53:03;;;;;;;8.38;2.50;;;18.10;54.70;;;;;;5044551;28;20670;-73
2023/10/26 11:55:31;;;;;;;10.18;3.20;;;18.10;53.30;;;;;;5045184;28;20021;-73
2023/10/26 11:57:59;;;;;;;11.07;2.30;;;18.40;53.30;;;;;;5044937;28;20374;-73
2023/10/26 12:00:26;;;;;;;11.77;2.80;;;18.60;54.40;;;;;;5044012;28;20100;-71
2023/10/26 12:02:58;;;;;;;7.15;2.63;;;19.20;51.40;;;;;;5045697;28;20428;-72
2023/10/26 12:05:25;;;;;;;13.07;3.20;;;19.70;51.00;;;;;;5046192;28;20025;-72
2023/10/26 12:07:51;;;;;;;10.52;2.95;;;19.90;48.80;;;;;;5055536;28;20055;-71
2023/10/26 12:10:18;;;;;;;11.90;2.85;;;20.00;47.40;;;;;;5055649;28;20041;-73
2023/10/26 12:12:45;;;;;;;13.55;2.88;;;20.10;48.20;;;;;;5055565;28;20057;-72
2023/10/26 12:15:11;;;;;;;8.25;3.00;;;20.30;48.60;;;;;;5055455;28;20028;-73
2023/10/26 12:17:37;;;;;;;9.02;2.65;;;20.20;47.60;;;;;;5054226;28;20477;-71
2023/10/26 12:20:03;;;;;;;9.23;2.58;;;20.30;48.40;;;;;;5055275;28;20064;-71
2023/10/26 12:22:29;;;;;;;9.38;2.40;;;20.50;46.90;;;;;;5055247;28;20117;-73
2023/10/26 12:24:55;;;;;;;13.00;2.70;;;20.30;47.00;;;;;;5055218;28;20100;-72
2023/10/26 12:27:20;;;;;;;9.68;2.17;;;20.40;47.30;;;;;;5055117;28;20098;-72
2023/10/26 12:29:47;;;;;;;10.57;3.00;;;20.30;47.20;;;;;;5055229;28;20049;-71
2023/10/26 12:32:13;;;;;;;8.80;2.20;;;19.70;47.90;;;;;;5055206;28;20064;-72
2023/10/26 12:34:39;;;;;;;10.38;2.80;;;19.60;48.80;;;;;;5053809;28;20029;-73
2023/10/26 12:37:05;;;;;;;9.23;2.65;;;19.70;48.30;;;;;;5054828;28;20071;-73
2023/10/26 12:39:32;;;;;;;13.30;2.42;;;19.90;49.00;;;;;;5054948;28;20111;-73
2023/10/26 12:41:58;;;;;;;9.45;2.95;;;19.90;47.40;;;;;;5054916;28;20124;-72
2023/10/26 12:44:24;;;;;;;9.73;2.20;;;19.50;48.60;;;;;;5055100;28;20438;-74
2023/10/26 12:46:53;;;;;;;11.70;3.05;;;19.40;50.30;;;;;;5053889;28;20165;-72